EPSC/SZZ METAR and TAF weather

Enter ICAO airport designator
Station Type Date Time Source
EPSC METAR 2019/07/20 05:00 UTC NOAA

EPSC 200500Z VRB02KT CAVOK 16/15 Q1015


Station Type Date Time Source
EPSC Decoded METAR 2019/07/20 05:00 UTC NOAA

Szczecin, Poland (EPSC) 53-24N 014-37E 3M
Jul 20, 2019 - 01:00 AM EDT / 2019.07.20 0500 UTC
Wind: Variable at 2 MPH (2 KT):0
Visibility: greater than 7 mile(s):0
Temperature: 60 F (16 C)
Dew Point: 59 F (15 C)
Relative Humidity: 93%
Pressure (altimeter): 29.97 in. Hg (1015 hPa)
ob: EPSC 200500Z VRB02KT CAVOK 16/15 Q1015
cycle: 5

Station Type Date Time Source
EPSC TAF 2019/07/19 18:33 UTC NOAA

TAF EPSC 191730Z 1918/2018 VRB05KT CAVOK
TEMPO 1918/1920 -SHRA SCT050CB PROB40
TEMPO 1918/1920 4000 TSRA BKN040CB PROB40
TEMPO 2002/2006 4000 BR

Example: see airport list